createdAt,value
2023-05-03T00:00:21.206Z,99.90
2023-05-03T00:02:48.239Z,99.90
2023-05-03T00:05:15.887Z,99.90
2023-05-03T00:07:44.745Z,99.90
2023-05-03T00:10:16.350Z,99.90
2023-05-03T00:12:44.345Z,99.90
2023-05-03T00:15:11.746Z,99.90
2023-05-03T00:17:38.788Z,99.90
2023-05-03T00:20:07.171Z,99.90
2023-05-03T00:22:34.585Z,99.90
2023-05-03T00:25:01.722Z,99.90
2023-05-03T00:27:29.073Z,99.90
2023-05-03T00:29:56.298Z,99.90
2023-05-03T00:32:23.370Z,99.90
2023-05-03T00:34:55.013Z,99.90
2023-05-03T00:37:22.729Z,99.90
2023-05-03T00:39:50.010Z,99.90
2023-05-03T00:42:16.886Z,99.90
2023-05-03T00:44:43.896Z,99.90
2023-05-03T00:47:11.358Z,99.90
2023-05-03T00:49:38.889Z,99.90
2023-05-03T00:52:06.693Z,99.90
2023-05-03T00:54:35.329Z,99.90
2023-05-03T00:57:04.633Z,99.90
2023-05-03T00:59:34.456Z,99.90
2023-05-03T01:02:01.993Z,99.90
2023-05-03T01:04:30.051Z,99.90
2023-05-03T01:07:15.410Z,99.90
2023-05-03T01:10:01.474Z,99.90
2023-05-03T01:13:01.599Z,99.90
2023-05-03T01:15:57.236Z,99.90
2023-05-03T01:18:33.562Z,99.90
2023-05-03T01:21:03.130Z,99.90
2023-05-03T01:23:46.291Z,99.90
2023-05-03T01:26:27.789Z,99.90
2023-05-03T01:28:55.806Z,99.90
2023-05-03T01:31:50.960Z,99.90
2023-05-03T01:34:34.154Z,99.90
2023-05-03T01:37:03.715Z,99.90
2023-05-03T01:39:48.526Z,99.90
2023-05-03T01:42:16.358Z,99.90
2023-05-03T01:44:45.255Z,99.90
2023-05-03T01:47:15.056Z,99.90
2023-05-03T01:49:41.947Z,99.90
2023-05-03T01:52:09.089Z,99.90
2023-05-03T01:54:36.048Z,99.90
2023-05-03T01:57:03.054Z,99.90
2023-05-03T01:59:29.885Z,99.90
2023-05-03T02:01:56.868Z,99.90
2023-05-03T02:04:23.767Z,99.90
2023-05-03T02:06:50.903Z,99.90
2023-05-03T02:09:18.711Z,99.90
2023-05-03T02:11:45.588Z,99.90
2023-05-03T02:14:12.619Z,99.90
2023-05-03T02:16:40.166Z,99.90
2023-05-03T02:19:08.021Z,99.90
2023-05-03T02:21:36.311Z,99.90
2023-05-03T02:24:03.782Z,99.90
2023-05-03T02:26:30.779Z,99.90
2023-05-03T02:28:58.144Z,99.90
2023-05-03T02:31:25.363Z,99.90
2023-05-03T02:33:52.283Z,99.90
2023-05-03T02:36:19.165Z,99.90
2023-05-03T02:38:46.027Z,99.90
2023-05-03T02:41:12.830Z,99.90
2023-05-03T02:43:39.690Z,99.90
2023-05-03T02:46:06.624Z,99.90
2023-05-03T02:48:33.472Z,99.90
2023-05-03T02:51:00.396Z,99.90
2023-05-03T02:53:27.240Z,99.90
2023-05-03T02:55:54.047Z,99.90
2023-05-03T02:58:20.946Z,99.90
2023-05-03T03:00:47.776Z,99.90
2023-05-03T03:03:14.692Z,99.90
2023-05-03T03:05:41.728Z,99.90
2023-05-03T03:08:08.538Z,99.90
2023-05-03T03:10:35.434Z,99.90
2023-05-03T03:13:02.378Z,99.90
2023-05-03T03:15:30.349Z,99.90
2023-05-03T03:17:58.262Z,99.90
2023-05-03T03:20:25.265Z,99.90
2023-05-03T03:22:52.159Z,99.90
2023-05-03T03:25:20.185Z,99.90
2023-05-03T03:27:47.037Z,99.90
2023-05-03T03:30:14.332Z,99.90
2023-05-03T03:32:41.322Z,99.90
2023-05-03T03:35:10.640Z,99.90
2023-05-03T03:37:39.140Z,99.90
2023-05-03T03:40:08.106Z,99.90
2023-05-03T03:42:35.058Z,99.90
2023-05-03T03:45:01.891Z,99.90
2023-05-03T03:47:28.756Z,99.90
2023-05-03T03:49:55.681Z,99.90
2023-05-03T03:52:23.077Z,99.90
2023-05-03T03:54:49.894Z,99.90
2023-05-03T03:57:16.733Z,99.90
2023-05-03T03:59:43.551Z,99.90
2023-05-03T04:02:10.808Z,99.90
2023-05-03T04:04:38.022Z,99.90
2023-05-03T04:07:05.028Z,99.90
2023-05-03T04:09:31.891Z,99.90
2023-05-03T04:11:58.767Z,99.90
2023-05-03T04:14:25.620Z,99.90
2023-05-03T04:16:52.539Z,99.90
2023-05-03T04:19:19.441Z,99.90
2023-05-03T04:21:46.260Z,99.90
2023-05-03T04:24:17.522Z,99.90
2023-05-03T04:26:44.990Z,99.90
2023-05-03T04:29:12.507Z,99.90
2023-05-03T04:31:39.831Z,99.90
2023-05-03T04:34:07.653Z,99.90
2023-05-03T04:36:34.584Z,99.90
2023-05-03T04:39:01.443Z,99.90
2023-05-03T04:41:28.334Z,99.90
2023-05-03T04:43:55.409Z,99.90
2023-05-03T04:46:22.289Z,99.90
2023-05-03T04:48:49.169Z,99.90
2023-05-03T04:51:16.016Z,99.90
2023-05-03T04:53:42.850Z,99.90
2023-05-03T04:56:09.694Z,99.90
2023-05-03T04:58:37.050Z,99.90
2023-05-03T05:01:03.935Z,99.90
2023-05-03T05:03:31.616Z,99.90
2023-05-03T05:05:58.898Z,99.90
2023-05-03T05:08:25.935Z,99.90
2023-05-03T05:10:52.831Z,99.90
2023-05-03T05:13:19.819Z,99.90
2023-05-03T05:15:46.730Z,99.90
2023-05-03T05:18:13.581Z,99.90
2023-05-03T05:20:40.493Z,99.90
2023-05-03T05:23:07.368Z,99.90
2023-05-03T05:25:34.222Z,99.90
2023-05-03T05:28:01.090Z,99.90
2023-05-03T05:30:27.987Z,99.90
2023-05-03T05:32:54.951Z,99.90
2023-05-03T05:35:21.868Z,99.90
2023-05-03T05:37:48.861Z,99.90
2023-05-03T05:40:15.841Z,99.90
2023-05-03T05:42:42.756Z,99.90
2023-05-03T05:45:12.511Z,99.90
2023-05-03T05:47:39.535Z,99.90
2023-05-03T05:50:16.819Z,99.90
2023-05-03T05:52:44.928Z,99.90
2023-05-03T05:55:14.607Z,99.90
2023-05-03T05:57:41.503Z,99.90
2023-05-03T06:00:14.424Z,99.90
2023-05-03T06:02:42.243Z,99.90
2023-05-03T06:05:10.788Z,99.90
2023-05-03T06:07:37.912Z,99.90
2023-05-03T06:10:05.692Z,99.90
2023-05-03T06:12:32.812Z,99.90
2023-05-03T06:15:02.824Z,99.90
2023-05-03T06:17:30.505Z,99.90
2023-05-03T06:19:58.394Z,99.90
2023-05-03T06:22:26.334Z,99.90
2023-05-03T06:24:53.183Z,99.90
2023-05-03T06:27:20.149Z,99.90
2023-05-03T06:29:48.034Z,99.90
2023-05-03T06:32:14.926Z,99.90
2023-05-03T06:34:41.788Z,99.90
2023-05-03T06:37:08.612Z,99.90
2023-05-03T06:39:35.541Z,99.90
2023-05-03T06:42:02.671Z,99.90
2023-05-03T06:44:29.511Z,99.90
2023-05-03T06:46:56.476Z,99.90
2023-05-03T06:49:23.478Z,99.90
2023-05-03T06:51:50.377Z,99.90
2023-05-03T06:54:17.309Z,99.90
2023-05-03T06:56:44.115Z,99.90
2023-05-03T06:59:10.985Z,99.90
2023-05-03T07:01:37.838Z,99.90
2023-05-03T07:04:05.081Z,99.90
2023-05-03T07:06:40.742Z,99.90
2023-05-03T07:09:11.373Z,99.90
2023-05-03T07:11:40.363Z,99.90
2023-05-03T07:14:07.287Z,99.90
2023-05-03T07:16:34.260Z,99.90
2023-05-03T07:19:01.484Z,99.90
2023-05-03T07:21:29.454Z,99.90
2023-05-03T07:23:56.307Z,99.90
2023-05-03T07:26:23.258Z,99.90
2023-05-03T07:28:50.298Z,99.90
2023-05-03T07:31:17.417Z,99.90
2023-05-03T07:33:44.477Z,99.90
2023-05-03T07:36:12.067Z,99.80
2023-05-03T07:38:39.110Z,99.10
2023-05-03T07:41:06.790Z,99.40
2023-05-03T07:43:33.828Z,98.20
2023-05-03T07:46:00.730Z,98.60
2023-05-03T07:48:27.591Z,97.90
2023-05-03T07:50:54.566Z,97.60
2023-05-03T07:53:21.511Z,97.20
2023-05-03T07:55:48.343Z,96.30
2023-05-03T07:58:15.359Z,94.70
2023-05-03T08:00:42.716Z,94.30
2023-05-03T08:03:09.755Z,94.00
2023-05-03T08:05:36.956Z,93.50
2023-05-03T08:08:05.495Z,93.50
2023-05-03T08:10:36.331Z,93.40
2023-05-03T08:13:06.061Z,94.00
2023-05-03T08:15:33.865Z,92.70
2023-05-03T08:18:01.216Z,92.50
2023-05-03T08:20:28.323Z,91.50
2023-05-03T08:22:58.200Z,91.70
2023-05-03T08:25:26.122Z,92.20
2023-05-03T08:27:53.430Z,92.40
2023-05-03T08:30:22.086Z,91.60
2023-05-03T08:32:49.151Z,91.10
2023-05-03T08:35:16.115Z,91.60
2023-05-03T08:37:44.099Z,90.90
2023-05-03T08:40:13.957Z,89.30
2023-05-03T08:42:47.089Z,87.30
2023-05-03T08:45:16.376Z,87.90
2023-05-03T08:47:45.463Z,87.40
2023-05-03T08:50:15.185Z,86.40
2023-05-03T08:52:43.491Z,84.40
2023-05-03T08:55:11.633Z,82.80
2023-05-03T08:57:39.389Z,84.60
2023-05-03T09:00:10.642Z,85.60
2023-05-03T09:02:41.388Z,83.10
2023-05-03T09:05:17.321Z,81.80
2023-05-03T09:08:05.714Z,79.00
2023-05-03T09:10:36.953Z,80.30
2023-05-03T09:13:04.154Z,80.40
2023-05-03T09:15:31.482Z,79.00
2023-05-03T09:18:16.523Z,79.00
2023-05-03T09:20:51.823Z,79.80
2023-05-03T09:23:26.271Z,80.30
2023-05-03T09:25:56.039Z,78.70
2023-05-03T09:28:23.555Z,81.00
2023-05-03T09:31:04.540Z,80.60
2023-05-03T09:33:31.456Z,81.60
2023-05-03T09:36:02.397Z,75.10
2023-05-03T09:38:36.666Z,76.70
2023-05-03T09:41:06.196Z,77.90
2023-05-03T09:43:35.509Z,77.90
2023-05-03T09:46:13.461Z,75.30
2023-05-03T09:48:41.979Z,77.80
2023-05-03T09:51:11.527Z,76.90
2023-05-03T09:53:40.266Z,77.80
2023-05-03T09:56:12.425Z,77.80
2023-05-03T09:58:42.894Z,71.90
2023-05-03T10:01:10.693Z,69.40
2023-05-03T10:03:46.757Z,70.80
2023-05-03T10:06:24.707Z,70.70
2023-05-03T10:09:23.317Z,66.70
2023-05-03T10:11:59.146Z,68.00
2023-05-03T10:14:26.536Z,70.10
2023-05-03T10:17:02.768Z,69.30
2023-05-03T10:19:52.865Z,67.40
2023-05-03T10:22:19.784Z,66.60
2023-05-03T10:25:02.437Z,69.20
2023-05-03T10:27:45.539Z,70.70
2023-05-03T10:30:31.086Z,67.50
2023-05-03T10:32:58.812Z,68.10
2023-05-03T10:35:29.770Z,68.20
2023-05-03T10:37:57.641Z,66.30
2023-05-03T10:40:41.372Z,66.40
2023-05-03T10:43:33.918Z,65.00
2023-05-03T10:46:30.651Z,64.30
2023-05-03T10:49:19.406Z,64.00
2023-05-03T10:51:46.821Z,61.90
2023-05-03T10:54:13.969Z,63.60
2023-05-03T10:56:52.506Z,64.40
2023-05-03T10:59:20.051Z,64.40
2023-05-03T11:01:53.795Z,65.20
2023-05-03T11:04:38.256Z,66.00
2023-05-03T11:07:05.153Z,65.00
2023-05-03T11:09:34.489Z,65.20
2023-05-03T11:12:07.213Z,62.20
2023-05-03T11:14:34.301Z,62.50
2023-05-03T11:17:01.998Z,62.60
2023-05-03T11:19:29.473Z,64.10
2023-05-03T11:21:57.407Z,67.00
2023-05-03T11:24:24.425Z,67.10
2023-05-03T11:26:51.407Z,65.30
2023-05-03T11:29:18.751Z,66.60
2023-05-03T11:31:45.937Z,66.30
2023-05-03T11:34:15.665Z,69.80
2023-05-03T11:36:42.766Z,67.70
2023-05-03T11:39:11.820Z,70.00
2023-05-03T11:41:38.995Z,69.60
2023-05-03T11:44:15.972Z,69.10
2023-05-03T11:46:45.946Z,68.00
2023-05-03T11:49:18.928Z,68.80
2023-05-03T11:51:49.197Z,68.50
2023-05-03T11:54:24.883Z,69.00
2023-05-03T11:56:59.588Z,67.60
2023-05-03T11:59:39.446Z,64.00
2023-05-03T12:02:13.111Z,67.30
2023-05-03T12:04:43.575Z,66.70
2023-05-03T12:07:14.669Z,65.30
2023-05-03T12:09:51.654Z,65.30
2023-05-03T12:12:31.734Z,65.10
2023-05-03T12:15:03.638Z,66.30
2023-05-03T12:17:43.995Z,70.50
2023-05-03T12:22:58.815Z,64.90
2023-05-03T12:25:28.234Z,65.70
2023-05-03T12:28:18.772Z,65.20
2023-05-03T12:30:47.307Z,66.80
2023-05-03T12:33:16.559Z,64.70
2023-05-03T12:35:47.517Z,67.00
2023-05-03T12:38:17.374Z,68.80
2023-05-03T12:40:47.008Z,67.10
2023-05-03T12:43:14.388Z,65.80
2023-05-03T12:45:44.721Z,64.70
2023-05-03T12:48:14.133Z,65.80
2023-05-03T12:50:45.163Z,66.50
2023-05-03T12:53:16.643Z,66.20
2023-05-03T12:55:44.951Z,64.50
2023-05-03T12:58:36.759Z,65.30
2023-05-03T13:03:33.804Z,68.20
2023-05-03T13:06:12.667Z,67.60
2023-05-03T13:08:48.842Z,69.10
2023-05-03T13:11:19.457Z,67.80
2023-05-03T13:13:46.675Z,68.80
2023-05-03T13:16:14.522Z,67.10
2023-05-03T13:18:42.858Z,69.70
2023-05-03T13:21:12.109Z,68.00
2023-05-03T13:23:39.021Z,67.30
2023-05-03T13:26:06.997Z,67.00
2023-05-03T13:28:33.967Z,66.30
2023-05-03T13:31:00.794Z,70.60
2023-05-03T13:33:28.763Z,70.70
2023-05-03T13:35:55.738Z,66.80
2023-05-03T13:38:22.697Z,67.70
2023-05-03T13:40:49.517Z,67.40
2023-05-03T13:43:16.361Z,66.60
2023-05-03T13:45:43.364Z,67.30
2023-05-03T13:48:19.199Z,67.00
2023-05-03T13:50:46.525Z,67.30
2023-05-03T13:53:13.500Z,68.70
2023-05-03T13:55:40.328Z,66.60
2023-05-03T13:58:07.237Z,66.00
2023-05-03T14:00:34.138Z,66.10
2023-05-03T14:03:01.381Z,68.30
2023-05-03T14:05:28.340Z,66.50
2023-05-03T14:07:55.479Z,67.40
2023-05-03T14:10:22.709Z,67.40
2023-05-03T14:12:50.080Z,68.10
2023-05-03T14:15:18.636Z,70.10
2023-05-03T14:17:48.457Z,73.10
2023-05-03T14:20:17.314Z,73.30
2023-05-03T14:22:45.634Z,72.60
2023-05-03T14:25:13.009Z,73.20
2023-05-03T14:27:40.219Z,73.90
2023-05-03T14:30:09.900Z,75.30
2023-05-03T14:32:36.809Z,75.20
2023-05-03T14:35:03.958Z,75.70
2023-05-03T14:37:31.239Z,76.30
2023-05-03T14:39:58.128Z,75.70
2023-05-03T14:42:24.984Z,76.60
2023-05-03T14:44:51.887Z,77.80
2023-05-03T14:47:18.984Z,78.00
2023-05-03T14:49:45.855Z,78.50
2023-05-03T14:52:13.161Z,79.10
2023-05-03T14:54:40.105Z,79.80
2023-05-03T14:57:07.155Z,79.30
2023-05-03T14:59:34.390Z,79.90
2023-05-03T15:02:02.176Z,79.90
2023-05-03T15:04:29.579Z,78.90
2023-05-03T15:07:03.952Z,78.90
2023-05-03T15:09:31.779Z,79.00
2023-05-03T15:11:59.233Z,79.50
2023-05-03T15:14:26.324Z,78.90
2023-05-03T15:16:53.476Z,78.90
2023-05-03T15:19:21.174Z,80.00
2023-05-03T15:21:51.969Z,82.70
2023-05-03T15:24:18.953Z,83.50
2023-05-03T15:26:47.025Z,82.70
2023-05-03T15:29:15.636Z,84.10
2023-05-03T15:31:43.325Z,83.00
2023-05-03T15:34:13.315Z,83.60
2023-05-03T15:36:40.807Z,83.80
2023-05-03T15:39:09.152Z,82.60
2023-05-03T15:41:36.101Z,82.60
2023-05-03T15:44:05.220Z,82.00
2023-05-03T15:46:34.546Z,82.10
2023-05-03T15:49:01.790Z,83.00
2023-05-03T15:51:29.293Z,83.30
2023-05-03T15:53:56.118Z,83.80
2023-05-03T15:56:23.091Z,84.10
2023-05-03T15:58:50.169Z,83.70
2023-05-03T16:01:18.634Z,83.40
2023-05-03T16:03:46.193Z,84.40
2023-05-03T16:06:13.334Z,83.80
2023-05-03T16:08:40.266Z,83.10
2023-05-03T16:11:08.028Z,84.20
2023-05-03T16:13:35.212Z,83.70
2023-05-03T16:16:03.133Z,84.10
2023-05-03T16:18:30.113Z,84.00
2023-05-03T16:20:57.029Z,84.20
2023-05-03T16:23:24.024Z,84.30
2023-05-03T16:25:51.021Z,85.20
2023-05-03T16:28:17.886Z,85.40
2023-05-03T16:30:45.920Z,84.30
2023-05-03T16:33:13.207Z,85.20
2023-05-03T16:35:40.219Z,84.90
2023-05-03T16:38:07.330Z,85.90
2023-05-03T16:40:34.184Z,85.60
2023-05-03T16:43:01.592Z,85.00
2023-05-03T16:45:28.577Z,85.90
2023-05-03T16:47:55.783Z,86.30
2023-05-03T16:50:22.844Z,85.90
2023-05-03T16:52:49.727Z,86.30
2023-05-03T16:55:24.737Z,85.20
2023-05-03T16:57:51.655Z,86.00
2023-05-03T17:00:20.895Z,86.00
2023-05-03T17:02:47.872Z,85.60
2023-05-03T17:05:15.049Z,86.90
2023-05-03T17:07:42.366Z,87.10
2023-05-03T17:10:09.887Z,86.90
2023-05-03T17:12:36.898Z,87.50
2023-05-03T17:15:04.600Z,87.50
2023-05-03T17:17:32.688Z,86.90
2023-05-03T17:19:59.755Z,87.30
2023-05-03T17:22:26.636Z,86.90
2023-05-03T17:24:55.319Z,87.30
2023-05-03T17:27:24.188Z,87.70
2023-05-03T17:29:54.105Z,87.80
2023-05-03T17:32:21.287Z,87.70
2023-05-03T17:34:48.112Z,87.70
2023-05-03T17:37:14.942Z,88.20
2023-05-03T17:39:41.963Z,88.90
2023-05-03T17:42:09.339Z,89.20
2023-05-03T17:44:36.196Z,89.30
2023-05-03T17:47:03.634Z,89.50
2023-05-03T17:49:33.740Z,89.50
2023-05-03T17:52:00.717Z,89.90
2023-05-03T17:54:30.881Z,90.10
2023-05-03T17:56:57.756Z,89.90
2023-05-03T17:59:24.572Z,89.60
2023-05-03T18:01:51.474Z,90.00
2023-05-03T18:04:18.315Z,89.70
2023-05-03T18:06:45.639Z,90.00
2023-05-03T18:09:13.270Z,90.20
2023-05-03T18:11:41.294Z,90.30
2023-05-03T18:14:10.486Z,90.20
2023-05-03T18:16:37.695Z,90.50
2023-05-03T18:19:04.642Z,90.50
2023-05-03T18:21:31.510Z,90.70
2023-05-03T18:23:58.492Z,91.00
2023-05-03T18:26:25.534Z,91.20
2023-05-03T18:28:53.643Z,91.20
2023-05-03T18:31:21.500Z,91.30
2023-05-03T18:33:48.961Z,91.60
2023-05-03T18:36:17.474Z,91.60
2023-05-03T18:38:46.730Z,91.60
2023-05-03T18:41:14.892Z,91.60
2023-05-03T18:43:47.130Z,91.70
2023-05-03T18:46:19.319Z,91.80
2023-05-03T18:48:47.792Z,92.00
2023-05-03T18:51:15.028Z,91.90
2023-05-03T18:53:43.456Z,92.00
2023-05-03T18:56:11.601Z,91.90
2023-05-03T18:58:38.624Z,92.10
2023-05-03T19:01:05.960Z,92.10
2023-05-03T19:03:33.403Z,92.10
2023-05-03T19:06:07.315Z,92.10
2023-05-03T19:08:35.443Z,92.10
2023-05-03T19:11:10.922Z,92.40
2023-05-03T19:13:37.973Z,92.40
2023-05-03T19:16:05.532Z,92.60
2023-05-03T19:18:32.589Z,92.80
2023-05-03T19:21:00.198Z,92.90
2023-05-03T19:23:27.486Z,93.00
2023-05-03T19:25:54.376Z,93.30
2023-05-03T19:28:21.366Z,93.40
2023-05-03T19:30:51.681Z,93.40
2023-05-03T19:33:20.346Z,93.40
2023-05-03T19:35:47.758Z,93.70
2023-05-03T19:38:15.041Z,93.70
2023-05-03T19:40:54.594Z,93.70
2023-05-03T19:43:21.505Z,93.90
2023-05-03T19:45:48.456Z,94.10
2023-05-03T19:48:17.361Z,94.00
2023-05-03T19:50:45.015Z,94.10
2023-05-03T19:53:12.690Z,94.20
2023-05-03T19:55:39.820Z,94.30
2023-05-03T19:58:07.409Z,94.50
2023-05-03T20:00:34.282Z,94.70
2023-05-03T20:03:01.162Z,94.80
2023-05-03T20:05:28.204Z,94.70
2023-05-03T20:07:55.198Z,94.70
2023-05-03T20:10:22.468Z,95.00
2023-05-03T20:12:49.318Z,94.90
2023-05-03T20:15:16.321Z,95.20
2023-05-03T20:17:43.236Z,95.30
2023-05-03T20:20:11.260Z,95.30
2023-05-03T20:22:38.235Z,95.20
2023-05-03T20:25:06.241Z,95.20
2023-05-03T20:27:33.143Z,95.30
2023-05-03T20:30:00.181Z,95.50
2023-05-03T20:32:27.162Z,95.70
2023-05-03T20:34:54.071Z,95.70
2023-05-03T20:37:20.929Z,95.60
2023-05-03T20:39:47.835Z,95.70
2023-05-03T20:42:14.670Z,95.90
2023-05-03T20:44:41.746Z,96.20
2023-05-03T20:47:09.190Z,95.90
2023-05-03T20:49:37.049Z,96.00
2023-05-03T20:52:04.212Z,96.20
2023-05-03T20:54:31.077Z,96.60
2023-05-03T20:56:58.273Z,96.80
2023-05-03T20:59:27.854Z,96.90
2023-05-03T21:01:55.842Z,96.90
2023-05-03T21:04:25.950Z,97.00
2023-05-03T21:06:52.943Z,97.40
2023-05-03T21:09:20.016Z,97.80
2023-05-03T21:11:46.865Z,98.30
2023-05-03T21:14:14.461Z,98.50
2023-05-03T21:16:41.419Z,98.80
2023-05-03T21:19:08.411Z,99.60
2023-05-03T21:21:35.308Z,99.90
2023-05-03T21:24:02.356Z,99.90
2023-05-03T21:26:32.755Z,99.90
2023-05-03T21:29:00.332Z,99.90
2023-05-03T21:31:27.451Z,99.90
2023-05-03T21:33:54.347Z,99.90
2023-05-03T21:36:21.331Z,99.90
2023-05-03T21:38:50.938Z,99.90
2023-05-03T21:41:19.468Z,99.90
2023-05-03T21:43:46.730Z,99.90
2023-05-03T21:46:14.002Z,99.90
2023-05-03T21:48:41.066Z,99.90
2023-05-03T21:51:08.804Z,99.90
2023-05-03T21:53:35.796Z,99.90
2023-05-03T21:56:02.713Z,99.90
2023-05-03T21:58:29.744Z,99.90
2023-05-03T22:00:56.601Z,99.90
2023-05-03T22:03:23.541Z,99.90
2023-05-03T22:05:51.463Z,99.90
2023-05-03T22:08:18.686Z,99.90
2023-05-03T22:10:46.386Z,99.90
2023-05-03T22:13:13.455Z,99.90
2023-05-03T22:15:40.372Z,99.90
2023-05-03T22:18:07.525Z,99.90
2023-05-03T22:20:34.580Z,99.90
2023-05-03T22:23:01.463Z,99.90
2023-05-03T22:25:32.092Z,99.90
2023-05-03T22:27:59.668Z,99.90
2023-05-03T22:30:27.630Z,99.90
2023-05-03T22:32:54.592Z,99.90
2023-05-03T22:35:21.717Z,99.90
2023-05-03T22:37:48.664Z,99.90
2023-05-03T22:40:15.698Z,99.90
2023-05-03T22:42:42.659Z,99.90
2023-05-03T22:45:10.350Z,99.90
2023-05-03T22:47:37.417Z,99.90
2023-05-03T22:50:06.147Z,99.90
2023-05-03T22:52:33.265Z,99.90
2023-05-03T22:55:01.354Z,99.90
2023-05-03T22:57:28.437Z,99.90
2023-05-03T22:59:55.418Z,99.90
2023-05-03T23:02:22.529Z,99.90
2023-05-03T23:04:49.411Z,99.90
2023-05-03T23:07:16.311Z,99.90
2023-05-03T23:09:43.162Z,99.90
2023-05-03T23:12:09.999Z,99.90
2023-05-03T23:14:38.973Z,99.90
2023-05-03T23:17:05.853Z,99.90
2023-05-03T23:19:33.813Z,99.90
2023-05-03T23:22:00.642Z,99.90
2023-05-03T23:24:27.460Z,99.90
2023-05-03T23:26:57.340Z,99.90
2023-05-03T23:29:24.599Z,99.90
2023-05-03T23:31:51.978Z,99.90
2023-05-03T23:34:20.192Z,99.90
2023-05-03T23:36:47.037Z,99.90
2023-05-03T23:39:13.934Z,99.90
2023-05-03T23:41:41.022Z,99.90
2023-05-03T23:44:08.365Z,99.90
2023-05-03T23:46:35.714Z,99.90
2023-05-03T23:49:02.751Z,99.90
2023-05-03T23:51:29.588Z,99.90
2023-05-03T23:53:56.629Z,99.90
2023-05-03T23:56:23.813Z,99.90
2023-05-03T23:58:50.644Z,99.90
